NCAR-RAP Real-Time Weather Data

Output produced by METARs form (08 May 2021  16:25 UTC)
found at http://weather.rap.ucar.edu/surface/
 
KEKN 081551Z AUTO 29013G20KT 10SM SCT040 BKN048 BKN060 10/M01 A3003 RMK AO2 WSHFT 1515 SLP183 T01001011
KEKN 081535Z AUTO 28010G21KT 10SM BKN039 BKN048 BKN055 08/M02 A3003 RMK AO2 WSHFT 1515 T00831017
KEKN 081451Z AUTO 29009KT 10SM FEW030 BKN037 OVC055 07/M02 A3001 RMK AO2 RAB02E15 SLP179 P0000 60000 T00721022 51020
KEKN 081351Z AUTO 28006G16KT 10SM FEW044 BKN060 07/M01 A2999 RMK AO2 SLP170 T00721006
KEKN 081337Z AUTO 27010KT 10SM SCT025 SCT035 BKN046 07/00 A2999 RMK AO2 T00670000
KEKN 081319Z AUTO 28012KT 10SM SCT023 BKN028 OVC050 07/00 A2999 RMK AO2 T00670000
KEKN 081310Z AUTO 28007G15KT 10SM FEW021 BKN037 OVC049 07/01 A2998 RMK AO2 T00720006
KEKN 081251Z AUTO 29009KT 10SM BKN020 BKN030 BKN043 07/01 A2998 RMK AO2 SLP163 T00670011
KEKN 081231Z AUTO 30013G18KT 10SM SCT021 SCT027 07/01 A2997 RMK AO2 T00670011
KEKN 081151Z AUTO 29004KT 10SM FEW015 BKN020 OVC037 06/02 A2995 RMK AO2 RAB1055E24 SLP154 P0002 60009 70035 T00610017 10067 20044 53020
KEKN 081051Z AUTO 31007KT 10SM SCT017 BKN025 OVC045 06/02 A2993 RMK AO2 RAE0956 SLP145 P0000 T00610017
KEKN 080951Z AUTO 30008KT 10SM -RA BKN015 BKN023 OVC030 06/02 A2991 RMK AO2 SLP139 P0001 T00610022
KEKN 080851Z AUTO VRB06G16KT 10SM -RA BKN018 BKN027 OVC060 07/02 A2989 RMK AO2 RAE16B34 SLP132 P0001 60006 T00670022 55002
KEKN 080751Z AUTO 00000KT 10SM -RA OVC017 06/02 A2988 RMK AO2 SLP127 P0003 T00610022
KEKN 080651Z AUTO 00000KT 5SM RA OVC025 05/02 A2989 RMK AO2 RAE0559B27 SLP135 P0002 T00500022
KEKN 080640Z AUTO 25003KT 5SM RA BKN027 OVC037 05/02 A2989 RMK AO2 RAE0559B27 P0001 T00500022
KEKN 080551Z AUTO 00000KT 10SM -RA SCT032 SCT046 OVC065 04/02 A2989 RMK AO2 RAB03E14B38 SLP135 P0000 60000 T00440017 10050 20017 58010
KEKN 080451Z AUTO 00000KT 6SM HZ OVC050 03/01 A2992 RMK AO2 SLP143 T00330006 400940017
KEKN 080351Z AUTO 00000KT 5SM BR SCT055 02/00 A2993 RMK AO2 SLP148 T00220000
KEKN 080348Z AUTO 00000KT 4SM HZ SCT055 02/M01 A2993 RMK AO2
KEKN 080347Z AUTO 00000KT 2 1/2SM HZ FEW055 02/M01 A2993 RMK AO2
KEKN 080339Z AUTO 00000KT 3/4SM HZ SCT055 02/M01 A2993 RMK AO2 T00221006
KEKN 080328Z AUTO 00000KT 2 1/2SM BR FEW055 02/M01 A2993 RMK AO2 T00171006
KEKN 080253Z AUTO 00000KT 3SM HZ CLR 03/00 A2994 RMK AO2 T00280000
KEKN 080251Z AUTO 00000KT 1 3/4SM BR CLR 02/00 A2994 RMK AO2 SLP153 T00220000 53001
KEKN 080242Z AUTO 00000KT 1 3/4SM HZ CLR 03/00 A2994 RMK AO2 VIS 3/4V5 T00280000
KEKN 080225Z AUTO 00000KT 6SM HZ CLR 03/01 A2994 RMK AO2 T00330006
KEKN 080213Z AUTO 00000KT 2 1/2SM BR CLR 03/01 A2994 RMK AO2 VIS 1 1/4V5 T00280006
KEKN 080151Z AUTO 00000KT 10SM CLR 03/01 A2994 RMK AO2 SLP153 T00330011
KEKN 080051Z AUTO 00000KT 10SM CLR 05/02 A2993 RMK AO2 SLP147 T00500022